Time;durP1;ratioP1;P1;durP2;ratioP2;P2;SDS_P1;SDS_P2;PMS_P1;PMS_P2;Temp;Humidity;BMP_temperature;BMP_pressure;BME280_temperature;BME280_humidity;BME280_pressure;Samples;Min_cycle;Max_cycle;Signal;HPM_P1;HPM_P2
2023/10/17 00:02:49;;;;;;;8.23;4.47;;;6.20;99.90;;;;;;4972487;28;19910;-47
2023/10/17 00:05:14;;;;;;;6.30;5.15;;;6.20;99.90;;;;;;4972468;28;20418;-45
2023/10/17 00:07:45;;;;;;;8.18;4.90;;;6.20;99.90;;;;;;4972414;28;20263;-45
2023/10/17 00:10:15;;;;;;;11.00;4.82;;;6.10;99.90;;;;;;4975220;28;20053;-50
2023/10/17 00:12:44;;;;;;;6.95;4.63;;;6.00;99.90;;;;;;4991112;28;20038;-48
2023/10/17 00:15:35;;;;;;;10.85;5.80;;;5.90;99.90;;;;;;4976384;28;20030;-47
2023/10/17 00:18:02;;;;;;;7.00;4.40;;;5.90;99.90;;;;;;4976091;28;20450;-49
2023/10/17 00:20:32;;;;;;;11.00;5.00;;;5.90;99.90;;;;;;4976301;28;20027;-50
2023/10/17 00:22:58;;;;;;;6.78;4.32;;;5.90;99.90;;;;;;4976174;28;20034;-47
2023/10/17 00:25:26;;;;;;;7.65;4.82;;;5.90;99.90;;;;;;4976180;28;20019;-48
2023/10/17 00:27:51;;;;;;;10.10;4.72;;;5.90;99.90;;;;;;4975980;28;20018;-49
2023/10/17 00:30:17;;;;;;;7.88;4.85;;;5.90;99.90;;;;;;4975016;28;20608;-52
2023/10/17 00:32:43;;;;;;;9.18;4.45;;;5.80;99.90;;;;;;4975999;28;20031;-50
2023/10/17 00:35:13;;;;;;;5.63;4.10;;;5.90;99.90;;;;;;4975977;28;20031;-47
2023/10/17 00:37:39;;;;;;;9.05;5.00;;;5.80;99.90;;;;;;4975808;28;20114;-47
2023/10/17 00:40:26;;;;;;;7.43;4.40;;;5.80;99.90;;;;;;4975912;28;20511;-46
2023/10/17 00:42:51;;;;;;;5.97;3.67;;;5.80;99.90;;;;;;4975761;28;20066;-48
2023/10/17 00:45:17;;;;;;;8.50;4.68;;;5.90;99.90;;;;;;4990715;28;20479;-49
2023/10/17 00:47:45;;;;;;;10.73;5.53;;;5.80;99.90;;;;;;4990496;28;20027;-50
2023/10/17 00:50:12;;;;;;;5.28;4.20;;;5.80;99.90;;;;;;4975909;28;20098;-50
2023/10/17 00:52:39;;;;;;;6.88;4.70;;;5.80;99.90;;;;;;4975876;28;20030;-48
2023/10/17 00:55:04;;;;;;;9.70;5.18;;;5.80;99.90;;;;;;4975709;28;20041;-49
2023/10/17 00:57:31;;;;;;;12.90;4.32;;;5.80;99.90;;;;;;4976116;28;20632;-53
2023/10/17 01:00:09;;;;;;;6.53;4.57;;;5.70;99.90;;;;;;4974562;28;20041;-52
2023/10/17 01:02:44;;;;;;;8.07;4.70;;;5.70;99.90;;;;;;4975242;28;20458;-53
2023/10/17 01:05:12;;;;;;;9.63;4.82;;;5.70;99.90;;;;;;4975952;28;20051;-49
2023/10/17 01:07:40;;;;;;;7.43;4.28;;;5.70;99.90;;;;;;4975353;28;20026;-49
2023/10/17 01:10:13;;;;;;;8.93;4.50;;;5.70;99.90;;;;;;4974021;28;20027;-47
2023/10/17 01:12:53;;;;;;;7.65;4.15;;;5.70;99.90;;;;;;4975099;28;20069;-50
2023/10/17 01:15:27;;;;;;;12.02;5.22;;;5.60;99.90;;;;;;4973974;28;20033;-47
2023/10/17 01:17:54;;;;;;;17.42;4.93;;;5.50;99.90;;;;;;4975112;28;20030;-46
2023/10/17 01:20:20;;;;;;;11.13;4.65;;;5.50;99.90;;;;;;4974819;28;20034;-49
2023/10/17 01:22:46;;;;;;;12.98;4.82;;;5.50;99.90;;;;;;4974224;28;20404;-47
2023/10/17 01:25:25;;;;;;;7.68;3.92;;;5.40;99.90;;;;;;4975021;28;20102;-47
2023/10/17 01:27:54;;;;;;;10.90;4.38;;;5.40;99.90;;;;;;4974970;28;20022;-49
2023/10/17 01:30:29;;;;;;;5.18;3.78;;;5.40;99.90;;;;;;4974852;28;20023;-50
2023/10/17 01:32:56;;;;;;;6.18;3.72;;;5.30;99.90;;;;;;4973525;28;20077;-49
2023/10/17 01:35:23;;;;;;;5.72;4.53;;;5.30;99.90;;;;;;4974830;28;20026;-49
2023/10/17 01:37:49;;;;;;;9.88;3.78;;;5.30;99.90;;;;;;4974671;28;20045;-47
2023/10/17 01:40:36;;;;;;;8.40;4.88;;;5.30;99.90;;;;;;4974676;28;20510;-48
2023/10/17 01:43:01;;;;;;;7.50;4.68;;;5.30;99.90;;;;;;4974713;28;20050;-47
2023/10/17 01:45:27;;;;;;;6.93;4.68;;;5.20;99.90;;;;;;4973310;28;20023;-47
2023/10/17 01:47:53;;;;;;;8.25;4.90;;;5.20;99.90;;;;;;4974554;28;20077;-46
2023/10/17 01:50:26;;;;;;;7.07;3.97;;;5.20;99.90;;;;;;4974580;28;20510;-47
2023/10/17 01:52:55;;;;;;;8.55;4.70;;;5.20;99.90;;;;;;4974473;28;20031;-47
2023/10/17 01:55:27;;;;;;;7.85;4.43;;;5.10;99.90;;;;;;4973116;28;20026;-52
2023/10/17 01:57:54;;;;;;;7.40;4.88;;;5.10;99.90;;;;;;4974720;28;20026;-49
2023/10/17 02:00:37;;;;;;;6.38;4.80;;;5.00;99.90;;;;;;4989380;28;20054;-47
2023/10/17 02:03:03;;;;;;;5.28;4.50;;;5.00;99.90;;;;;;4973943;28;20019;-45
2023/10/17 02:05:29;;;;;;;5.22;4.63;;;5.00;99.90;;;;;;4973120;28;20427;-48
2023/10/17 02:07:55;;;;;;;9.85;4.50;;;5.00;99.90;;;;;;4973971;28;20027;-47
2023/10/17 02:10:21;;;;;;;6.93;4.63;;;5.00;99.90;;;;;;4974248;28;20454;-47
2023/10/17 02:12:48;;;;;;;10.98;5.10;;;5.00;99.90;;;;;;4974181;28;20126;-50
2023/10/17 02:15:20;;;;;;;6.55;4.40;;;5.00;99.90;;;;;;4974112;28;20042;-49
2023/10/17 02:17:46;;;;;;;6.15;3.67;;;5.00;99.90;;;;;;4974031;28;20161;-47
2023/10/17 02:20:21;;;;;;;9.38;4.82;;;5.00;99.90;;;;;;4974075;28;20027;-48
2023/10/17 02:22:51;;;;;;;8.00;4.90;;;5.00;99.90;;;;;;4973908;28;20027;-47
2023/10/17 02:25:21;;;;;;;11.30;5.53;;;5.00;99.90;;;;;;4974223;28;20442;-48
2023/10/17 02:27:48;;;;;;;8.95;4.20;;;5.00;99.90;;;;;;4973698;28;20026;-52
2023/10/17 02:30:14;;;;;;;10.18;4.38;;;5.00;99.90;;;;;;4973957;28;20105;-47
2023/10/17 02:32:51;;;;;;;5.63;3.85;;;5.00;99.90;;;;;;4973519;28;20027;-47
2023/10/17 02:35:18;;;;;;;9.40;4.47;;;5.00;99.90;;;;;;4973884;28;20157;-47
2023/10/17 02:37:44;;;;;;;5.47;4.03;;;5.00;99.90;;;;;;4973681;28;20679;-49
2023/10/17 02:40:23;;;;;;;8.85;5.03;;;4.90;99.90;;;;;;4973768;28;20109;-49
2023/10/17 02:42:49;;;;;;;5.43;4.35;;;4.90;99.90;;;;;;4973529;28;20049;-50
2023/10/17 02:45:27;;;;;;;11.13;4.78;;;4.80;99.90;;;;;;4973443;28;20062;-47
2023/10/17 02:47:57;;;;;;;7.00;4.47;;;4.80;99.90;;;;;;4973412;28;20014;-48
2023/10/17 02:52:58;;;;;;;13.82;4.13;;;4.70;99.90;;;;;;4973670;28;20142;-47
2023/10/17 02:55:24;;;;;;;8.45;3.63;;;4.70;99.90;;;;;;4988334;28;20031;-49
2023/10/17 02:57:54;;;;;;;8.38;4.40;;;4.80;99.90;;;;;;4973416;28;20027;-49
2023/10/17 03:00:25;;;;;;;5.13;3.95;;;4.80;99.90;;;;;;4973503;28;20398;-47
2023/10/17 03:02:52;;;;;;;4.90;3.92;;;4.80;99.90;;;;;;4971729;28;20396;-51
2023/10/17 03:05:18;;;;;;;5.80;3.78;;;4.80;99.90;;;;;;4973306;28;20061;-51
2023/10/17 03:07:51;;;;;;;8.68;4.55;;;4.80;99.90;;;;;;4973077;28;20026;-52
2023/10/17 03:10:43;;;;;;;9.10;4.10;;;4.80;99.90;;;;;;4973752;28;20081;-46
2023/10/17 03:15:55;;;;;;;8.20;3.58;;;4.90;99.90;;;;;;4973300;28;20027;-49
2023/10/17 03:18:21;;;;;;;5.40;3.55;;;5.00;99.90;;;;;;4973036;28;20513;-50
2023/10/17 03:20:53;;;;;;;7.07;3.83;;;5.00;99.90;;;;;;4973259;28;20027;-52
2023/10/17 03:23:28;;;;;;;8.63;3.70;;;5.00;99.90;;;;;;4987897;28;20027;-51
2023/10/17 03:26:00;;;;;;;9.43;3.65;;;5.10;99.90;;;;;;4972978;28;20082;-48
2023/10/17 03:28:27;;;;;;;6.18;3.80;;;5.10;99.90;;;;;;4973021;28;20169;-52
2023/10/17 03:30:53;;;;;;;7.43;4.22;;;5.10;99.90;;;;;;4972953;28;20121;-52
2023/10/17 03:33:27;;;;;;;5.15;3.60;;;5.10;99.90;;;;;;4972882;28;20106;-52
2023/10/17 03:36:05;;;;;;;5.35;2.80;;;5.10;99.90;;;;;;4972862;28;20109;-48
2023/10/17 03:38:33;;;;;;;6.18;4.10;;;5.10;99.90;;;;;;4972844;28;20031;-51
2023/10/17 03:41:15;;;;;;;5.43;3.80;;;5.10;99.90;;;;;;4972904;28;20058;-47
2023/10/17 03:43:52;;;;;;;15.23;4.22;;;5.10;99.90;;;;;;4972345;28;20027;-48
2023/10/17 03:46:19;;;;;;;5.20;3.30;;;5.10;99.90;;;;;;4972605;28;20050;-48
2023/10/17 03:48:57;;;;;;;9.48;3.72;;;5.10;99.90;;;;;;4987659;28;20499;-48
2023/10/17 03:51:24;;;;;;;5.30;4.18;;;5.20;99.90;;;;;;4972884;28;20479;-49
2023/10/17 03:53:50;;;;;;;7.78;4.05;;;5.20;99.90;;;;;;4972460;28;20395;-47
2023/10/17 04:01:49;;;;;;;4.05;3.50;;;5.10;99.90;;;;;;4972287;28;20065;-48
2023/10/17 04:04:31;;;;;;;9.07;4.15;;;5.10;99.90;;;;;;4972362;28;20055;-49
2023/10/17 04:06:57;;;;;;;5.00;3.63;;;5.00;99.90;;;;;;4972441;28;20033;-45
2023/10/17 04:09:32;;;;;;;9.57;4.35;;;5.10;99.90;;;;;;4972613;28;20395;-48
2023/10/17 04:12:03;;;;;;;6.68;3.95;;;5.10;99.90;;;;;;4987454;28;20166;-47
2023/10/17 04:14:43;;;;;;;10.73;4.80;;;5.00;99.90;;;;;;4972542;28;20454;-46
2023/10/17 04:17:14;;;;;;;8.15;3.95;;;5.10;99.90;;;;;;4972407;28;20376;-46
2023/10/17 04:19:39;;;;;;;6.70;3.78;;;5.00;99.90;;;;;;4972708;28;20023;-47
2023/10/17 04:22:08;;;;;;;4.85;3.40;;;5.00;99.90;;;;;;4972520;28;20049;-49
2023/10/17 04:24:34;;;;;;;4.75;3.53;;;5.00;99.90;;;;;;4988180;28;20031;-48
2023/10/17 04:27:07;;;;;;;6.55;3.45;;;5.00;99.90;;;;;;4972726;28;20506;-52
2023/10/17 04:29:34;;;;;;;5.47;3.75;;;5.00;99.90;;;;;;4973065;28;20078;-54
2023/10/17 04:32:01;;;;;;;6.38;3.70;;;5.10;99.90;;;;;;4972882;28;20027;-51
2023/10/17 04:34:28;;;;;;;7.22;3.92;;;5.00;99.90;;;;;;4972896;28;20027;-49
2023/10/17 04:36:56;;;;;;;5.03;3.97;;;5.00;99.90;;;;;;4972648;28;20027;-50
2023/10/17 04:44:21;;;;;;;4.38;3.78;;;5.10;99.90;;;;;;4972622;28;20027;-50
2023/10/17 04:49:30;;;;;;;5.80;3.72;;;5.20;99.90;;;;;;4972737;28;20022;-49
2023/10/17 04:52:08;;;;;;;6.30;3.40;;;5.10;99.90;;;;;;4972503;28;20015;-47
2023/10/17 04:57:05;;;;;;;5.53;3.70;;;5.10;99.90;;;;;;4975518;28;20054;-51
2023/10/17 05:07:58;;;;;;;;;;;5.10;99.90;;;;;;4976058;28;20024;-47
2023/10/17 06:18:49;;;;;;;8.00;3.70;;;4.90;99.90;;;;;;4974451;28;20038;-49
2023/10/17 06:21:18;;;;;;;6.28;4.22;;;4.90;99.90;;;;;;4974468;28;20023;-49
2023/10/17 06:34:15;;;;;;;5.38;3.92;;;5.10;99.90;;;;;;4973685;28;20396;-51
2023/10/17 06:36:42;;;;;;;10.52;4.18;;;5.20;99.90;;;;;;4973610;28;20161;-49
2023/10/17 06:39:17;;;;;;;9.55;4.53;;;5.30;99.90;;;;;;4973707;28;20026;-48
2023/10/17 06:41:44;;;;;;;4.88;3.85;;;5.30;99.90;;;;;;4973945;28;20030;-49
2023/10/17 06:44:11;;;;;;;6.70;4.18;;;5.30;99.90;;;;;;4988553;28;20031;-49
2023/10/17 06:46:40;;;;;;;11.10;4.40;;;5.30;99.90;;;;;;4973641;28;20050;-51
2023/10/17 06:49:08;;;;;;;7.70;4.00;;;5.30;99.90;;;;;;4973713;28;20460;-48
2023/10/17 06:51:39;;;;;;;5.15;3.42;;;5.30;99.90;;;;;;4973433;28;20023;-51
2023/10/17 06:54:06;;;;;;;6.75;3.90;;;5.40;99.90;;;;;;4973714;28;20034;-51
2023/10/17 06:56:38;;;;;;;5.82;3.65;;;5.40;99.90;;;;;;4973271;28;20035;-52
2023/10/17 06:59:04;;;;;;;11.75;3.78;;;5.50;99.90;;;;;;4973400;28;20106;-47
2023/10/17 07:01:33;;;;;;;6.82;3.72;;;5.50;99.90;;;;;;4973274;28;20506;-47
2023/10/17 07:04:01;;;;;;;4.32;3.70;;;5.60;99.90;;;;;;4972949;28;20081;-49
2023/10/17 07:06:29;;;;;;;9.40;4.15;;;5.70;99.90;;;;;;4973148;28;20019;-51
2023/10/17 07:08:54;;;;;;;7.13;3.58;;;5.80;99.90;;;;;;4973318;28;20051;-50
2023/10/17 07:13:49;;;;;;;6.25;3.55;;;6.00;99.90;;;;;;4972910;28;20399;-48
2023/10/17 07:16:25;;;;;;;8.32;4.20;;;6.10;99.90;;;;;;4973122;28;20089;-51
2023/10/17 07:18:51;;;;;;;;;;;6.10;99.90;;;;;;4973089;28;20073;-49
2023/10/17 07:21:22;;;;;;;6.10;3.75;;;6.10;99.90;;;;;;4988266;28;19999;-47
2023/10/17 07:23:48;;;;;;;13.10;4.72;;;6.10;99.90;;;;;;4973058;28;20564;-50
2023/10/17 07:26:17;;;;;;;6.43;3.70;;;6.10;99.90;;;;;;4973139;28;20026;-50
2023/10/17 07:28:50;;;;;;;6.63;4.20;;;6.10;99.90;;;;;;4973119;28;20026;-48
2023/10/17 07:31:20;;;;;;;8.43;3.85;;;6.10;99.90;;;;;;4953612;29;20024;-50
2023/10/17 07:33:47;;;;;;;8.30;3.88;;;6.20;99.90;;;;;;4953641;28;20407;-49
2023/10/17 07:36:18;;;;;;;6.65;3.50;;;6.20;99.90;;;;;;4953443;29;20488;-50
2023/10/17 07:38:45;;;;;;;4.78;3.50;;;6.20;99.90;;;;;;4953754;29;20034;-49
2023/10/17 07:41:14;;;;;;;5.70;3.58;;;6.10;99.90;;;;;;4953323;29;20082;-51
2023/10/17 07:43:46;;;;;;;4.57;3.75;;;6.10;99.90;;;;;;4953222;28;20031;-48
2023/10/17 07:46:19;;;;;;;10.38;3.85;;;6.20;99.90;;;;;;4953192;29;20028;-49
2023/10/17 07:48:48;;;;;;;4.88;3.95;;;6.10;99.90;;;;;;4964017;28;20047;-47
2023/10/17 07:51:15;;;;;;;8.07;4.15;;;6.20;99.90;;;;;;4971828;28;20055;-47
2023/10/17 07:53:45;;;;;;;5.22;3.50;;;6.20;99.90;;;;;;4970819;28;20581;-50
2023/10/17 07:56:20;;;;;;;6.00;3.25;;;6.30;99.90;;;;;;4971764;28;20410;-47
2023/10/17 07:58:46;;;;;;;5.45;4.00;;;6.40;99.90;;;;;;4972122;28;20104;-48
2023/10/17 08:01:16;;;;;;;7.22;4.10;;;6.40;99.90;;;;;;4972317;28;20034;-54
2023/10/17 08:03:51;;;;;;;7.18;3.40;;;6.40;99.90;;;;;;4971743;28;20062;-51
2023/10/17 08:06:22;;;;;;;6.37;3.27;;;6.50;99.90;;;;;;4972502;28;20513;-46
2023/10/17 08:08:49;;;;;;;9.93;4.20;;;6.50;99.90;;;;;;4971812;28;20035;-49
2023/10/17 08:11:27;;;;;;;6.63;3.92;;;6.60;99.90;;;;;;4972203;28;20376;-54
2023/10/17 08:13:58;;;;;;;6.90;3.30;;;6.70;99.90;;;;;;4972190;28;20045;-50
2023/10/17 08:16:24;;;;;;;7.10;3.63;;;6.60;99.90;;;;;;4972237;28;20023;-51
2023/10/17 08:24:33;;;;;;;5.53;3.35;;;6.90;99.90;;;;;;4953678;29;20070;-48
2023/10/17 08:34:57;;;;;;;3.30;3.08;;;7.00;99.90;;;;;;4975818;28;20467;-47
2023/10/17 08:37:32;;;;;;;13.82;4.07;;;7.10;99.90;;;;;;4975538;28;20059;-56
2023/10/17 08:39:58;;;;;;;4.55;3.95;;;7.10;99.90;;;;;;4975616;28;20030;-50
2023/10/17 08:44:56;;;;;;;5.40;4.05;;;7.10;99.90;;;;;;4974840;28;20046;-51
2023/10/17 08:47:25;;;;;;;6.05;3.58;;;7.10;99.90;;;;;;4974919;28;20034;-47
2023/10/17 08:49:54;;;;;;;7.00;3.78;;;7.20;99.90;;;;;;4975422;28;20497;-48
2023/10/17 08:52:34;;;;;;;6.38;3.40;;;7.30;99.90;;;;;;4975575;28;20435;-46
2023/10/17 08:55:02;;;;;;;4.07;3.67;;;7.40;99.90;;;;;;4975368;28;20019;-48
2023/10/17 08:57:29;;;;;;;9.32;3.50;;;7.40;99.90;;;;;;4974869;28;20397;-45
2023/10/17 09:02:39;;;;;;;29.73;18.08;;;7.60;99.90;;;;;;4972745;28;20027;-46
2023/10/17 09:05:19;;;;;;;8.52;5.65;;;7.80;99.90;;;;;;4974703;28;20046;-49
2023/10/17 09:07:55;;;;;;;16.33;7.78;;;7.80;99.90;;;;;;4973604;28;20045;-47
2023/10/17 09:10:45;;;;;;;6.95;3.70;;;7.80;99.90;;;;;;4974864;28;20023;-44
2023/10/17 09:15:59;;;;;;;5.15;3.65;;;7.70;99.90;;;;;;4975354;28;20061;-51
2023/10/17 09:18:28;;;;;;;5.15;3.33;;;7.60;99.90;;;;;;4975073;28;20035;-48
2023/10/17 09:20:55;;;;;;;5.57;3.63;;;7.60;99.90;;;;;;4969473;28;20470;-48
2023/10/17 09:23:23;;;;;;;6.97;3.95;;;7.60;99.90;;;;;;4972327;28;20055;-49
2023/10/17 09:26:00;;;;;;;5.50;3.92;;;7.80;99.90;;;;;;4972760;28;20065;-46
2023/10/17 09:28:28;;;;;;;7.07;3.80;;;7.80;99.90;;;;;;4973292;28;20080;-48
2023/10/17 09:31:20;;;;;;;5.78;3.83;;;7.80;99.90;;;;;;4971351;28;20592;-47
2023/10/17 09:33:48;;;;;;;3.47;3.17;;;7.90;99.90;;;;;;4970727;28;20155;-48
2023/10/17 09:36:17;;;;;;;6.88;3.90;;;7.80;99.90;;;;;;4973037;28;20037;-50
2023/10/17 09:38:46;;;;;;;7.90;3.33;;;7.90;99.90;;;;;;4973431;28;20200;-51
2023/10/17 09:41:19;;;;;;;5.95;3.58;;;8.00;99.90;;;;;;4975151;28;20074;-47
2023/10/17 09:43:49;;;;;;;5.18;3.50;;;8.10;99.90;;;;;;4971707;28;20039;-45
2023/10/17 09:46:16;;;;;;;4.38;3.47;;;8.10;99.90;;;;;;4972995;28;20023;-48
2023/10/17 09:48:43;;;;;;;8.10;3.72;;;8.10;99.90;;;;;;4972763;28;20029;-49
2023/10/17 09:51:12;;;;;;;11.48;4.32;;;8.10;99.90;;;;;;4971560;28;20027;-49
2023/10/17 09:53:39;;;;;;;3.85;3.00;;;8.10;99.90;;;;;;4972724;28;20610;-49
2023/10/17 09:56:09;;;;;;;5.38;3.67;;;8.10;99.90;;;;;;4972935;28;20038;-47
2023/10/17 09:58:42;;;;;;;3.58;3.25;;;8.10;99.90;;;;;;4972554;28;20130;-49
2023/10/17 10:01:21;;;;;;;7.03;4.03;;;8.20;99.90;;;;;;4971237;28;20109;-45
2023/10/17 10:03:51;;;;;;;3.22;2.92;;;8.30;99.90;;;;;;4972581;28;20030;-47
2023/10/17 10:06:21;;;;;;;4.35;3.35;;;8.20;99.90;;;;;;4972453;28;20110;-49
2023/10/17 10:08:47;;;;;;;5.30;3.30;;;8.30;99.90;;;;;;4971957;28;20037;-53
2023/10/17 10:11:12;;;;;;;5.05;3.33;;;8.40;99.90;;;;;;4970143;28;20022;-51
2023/10/17 10:14:03;;;;;;;5.40;3.55;;;8.40;99.90;;;;;;4972176;28;20038;-53
2023/10/17 10:16:55;;;;;;;4.50;3.20;;;8.50;99.90;;;;;;4988873;28;20081;-54
2023/10/17 10:19:21;;;;;;;3.72;3.10;;;8.50;99.90;;;;;;4972481;28;20027;-55
2023/10/17 10:21:59;;;;;;;5.22;3.30;;;8.50;99.90;;;;;;4970866;28;20073;-56
2023/10/17 10:24:29;;;;;;;6.70;3.75;;;8.50;99.90;;;;;;4971527;28;20062;-48
2023/10/17 10:27:18;;;;;;;3.83;3.53;;;8.50;99.90;;;;;;4971939;28;20026;-46
2023/10/17 10:29:45;;;;;;;5.05;3.47;;;8.60;99.90;;;;;;4969251;28;20027;-49
2023/10/17 10:32:32;;;;;;;4.68;3.28;;;8.60;99.90;;;;;;4970495;28;20023;-51
2023/10/17 10:34:58;;;;;;;4.20;3.63;;;8.60;99.90;;;;;;4972178;28;20023;-51
2023/10/17 10:37:24;;;;;;;8.27;4.43;;;8.50;99.90;;;;;;4972096;28;20023;-54
2023/10/17 10:40:34;;;;;;;5.72;3.25;;;8.60;99.90;;;;;;4971906;28;20034;-54
2023/10/17 10:43:01;;;;;;;8.00;3.33;;;8.80;99.90;;;;;;4969794;28;20046;-50
2023/10/17 10:45:42;;;;;;;3.90;3.33;;;8.80;99.90;;;;;;4971350;28;20033;-50
2023/10/17 10:48:18;;;;;;;5.80;4.07;;;8.80;99.90;;;;;;4967558;28;20026;-52
2023/10/17 10:50:45;;;;;;;4.05;3.25;;;8.80;99.90;;;;;;4970797;28;20545;-54
2023/10/17 10:53:39;;;;;;;6.55;3.22;;;8.80;99.90;;;;;;4973511;28;20037;-51
2023/10/17 10:56:09;;;;;;;5.68;3.30;;;8.80;99.90;;;;;;4973474;28;20418;-49
2023/10/17 10:58:47;;;;;;;5.18;3.33;;;8.80;99.90;;;;;;4987699;28;20075;-46
2023/10/17 11:01:14;;;;;;;4.55;3.13;;;8.80;99.90;;;;;;4988579;28;20019;-50
2023/10/17 11:03:46;;;;;;;7.60;3.97;;;8.90;99.90;;;;;;4973059;28;20061;-56
2023/10/17 11:06:13;;;;;;;6.57;3.30;;;9.00;99.90;;;;;;4973234;28;20468;-45
2023/10/17 11:08:46;;;;;;;4.50;3.00;;;9.00;99.90;;;;;;4973320;28;20023;-47
2023/10/17 11:11:14;;;;;;;5.07;4.05;;;9.00;99.90;;;;;;4972261;28;20046;-47
2023/10/17 11:13:44;;;;;;;7.68;3.17;;;9.10;99.90;;;;;;4972794;28;20039;-54
2023/10/17 11:16:10;;;;;;;4.20;3.80;;;9.10;99.90;;;;;;4973129;28;20026;-46
2023/10/17 11:18:43;;;;;;;5.28;3.10;;;9.10;99.90;;;;;;4972847;28;20038;-49
2023/10/17 11:21:09;;;;;;;3.10;2.90;;;9.20;99.90;;;;;;4972970;28;20510;-45
2023/10/17 11:23:41;;;;;;;4.85;2.95;;;9.20;99.90;;;;;;4972713;28;20031;-48
2023/10/17 11:26:09;;;;;;;3.90;3.25;;;9.20;99.90;;;;;;4972763;28;20098;-50
2023/10/17 11:28:41;;;;;;;7.75;3.30;;;9.20;99.90;;;;;;4972560;28;20019;-49
2023/10/17 11:31:13;;;;;;;9.32;3.05;;;9.30;99.90;;;;;;4972898;28;20396;-48
2023/10/17 11:33:45;;;;;;;5.97;3.10;;;9.30;99.90;;;;;;4972592;28;20449;-47
2023/10/17 11:36:20;;;;;;;4.63;3.15;;;9.40;99.90;;;;;;4972723;28;20037;-48
2023/10/17 11:38:53;;;;;;;12.48;3.53;;;9.40;99.90;;;;;;4988074;28;20430;-48
2023/10/17 11:41:19;;;;;;;4.30;2.90;;;9.40;99.90;;;;;;4972931;28;20086;-49
2023/10/17 11:43:51;;;;;;;6.38;2.83;;;9.30;99.90;;;;;;4972620;28;20030;-49
2023/10/17 11:46:33;;;;;;;4.45;3.00;;;9.30;99.90;;;;;;4972478;28;20034;-48
2023/10/17 11:49:33;;;;;;;6.80;3.10;;;9.40;99.90;;;;;;4972889;28;20442;-50
2023/10/17 11:52:00;;;;;;;2.97;2.63;;;9.40;99.90;;;;;;4972595;28;20054;-48
2023/10/17 11:54:29;;;;;;;5.22;2.88;;;9.50;99.90;;;;;;4972444;28;20031;-49
2023/10/17 11:57:07;;;;;;;4.85;2.85;;;9.50;99.90;;;;;;4972186;28;20023;-53
2023/10/17 11:59:33;;;;;;;33.58;18.10;;;9.50;99.90;;;;;;4972404;28;20558;-47
2023/10/17 12:02:02;;;;;;;16.88;9.82;;;9.60;99.90;;;;;;4972277;28;20030;-49
2023/10/17 12:04:27;;;;;;;6.15;3.13;;;9.60;99.90;;;;;;4972211;28;20375;-48
2023/10/17 12:06:53;;;;;;;4.35;3.72;;;9.60;99.90;;;;;;4975539;28;20029;-48
2023/10/17 12:09:22;;;;;;;8.10;3.95;;;9.60;99.90;;;;;;5016938;23;20061;-47
2023/10/17 12:11:53;;;;;;;5.57;3.42;;;9.60;99.90;;;;;;5035634;28;20018;-49
2023/10/17 12:14:22;;;;;;;4.72;3.08;;;9.60;99.90;;;;;;5035042;28;20076;-50
2023/10/17 12:16:54;;;;;;;4.05;2.92;;;9.70;99.90;;;;;;5035278;28;20024;-49
2023/10/17 12:19:26;;;;;;;4.05;3.65;;;9.70;99.90;;;;;;5028001;28;20079;-46
2023/10/17 12:22:00;;;;;;;6.35;3.03;;;9.70;99.90;;;;;;5014454;28;20133;-50
2023/10/17 12:24:34;;;;;;;5.38;3.05;;;9.70;99.90;;;;;;5015745;28;20022;-47
2023/10/17 12:27:00;;;;;;;5.47;2.25;;;9.80;99.90;;;;;;5015297;28;20083;-46
2023/10/17 12:29:29;;;;;;;4.93;2.90;;;9.90;99.90;;;;;;5014038;28;20109;-51
2023/10/17 12:31:57;;;;;;;5.00;3.35;;;9.90;99.90;;;;;;5014704;28;20493;-54
2023/10/17 12:34:23;;;;;;;5.53;2.78;;;10.00;99.90;;;;;;5015036;28;20034;-51
2023/10/17 12:36:49;;;;;;;4.90;3.05;;;10.00;99.90;;;;;;5013787;28;20038;-50
2023/10/17 12:39:16;;;;;;;3.53;3.13;;;10.10;99.90;;;;;;5013633;28;20116;-56
2023/10/17 12:41:43;;;;;;;5.13;2.92;;;10.10;99.90;;;;;;5014132;28;20029;-48
2023/10/17 12:44:09;;;;;;;3.45;3.15;;;10.20;99.90;;;;;;5014826;28;20061;-54
2023/10/17 12:46:35;;;;;;;4.82;2.38;;;10.20;99.90;;;;;;5013957;28;20046;-54
2023/10/17 12:49:01;;;;;;;3.60;2.72;;;10.20;99.90;;;;;;5015153;28;20022;-54
2023/10/17 12:51:27;;;;;;;5.80;3.10;;;10.30;99.90;;;;;;5015574;28;20029;-50
2023/10/17 12:53:54;;;;;;;4.90;3.20;;;10.40;99.90;;;;;;5015617;28;20459;-57
2023/10/17 12:56:20;;;;;;;7.45;3.28;;;10.50;99.90;;;;;;5014849;28;20476;-54
2023/10/17 12:58:49;;;;;;;3.63;3.05;;;10.40;99.90;;;;;;5013414;28;20116;-51
2023/10/17 13:01:15;;;;;;;5.78;3.05;;;10.50;99.90;;;;;;5013652;28;20034;-48
2023/10/17 13:03:40;;;;;;;6.93;3.50;;;10.50;99.90;;;;;;5014794;28;20041;-50
2023/10/17 13:06:06;;;;;;;6.00;4.57;;;10.60;99.90;;;;;;5014930;28;20037;-52
2023/10/17 13:08:32;;;;;;;6.53;4.28;;;10.60;99.90;;;;;;5014773;28;20033;-55
2023/10/17 13:10:58;;;;;;;5.65;3.45;;;10.70;99.90;;;;;;5014735;28;20029;-53
2023/10/17 13:13:25;;;;;;;5.47;3.22;;;10.80;99.90;;;;;;5013248;28;20081;-53
2023/10/17 13:15:52;;;;;;;3.63;2.78;;;10.90;99.90;;;;;;5013026;28;20026;-51
2023/10/17 13:18:19;;;;;;;6.15;2.67;;;10.90;99.90;;;;;;5011641;28;20034;-56
2023/10/17 13:20:50;;;;;;;3.80;3.08;;;10.90;99.90;;;;;;5012938;28;20022;-51
2023/10/17 13:23:16;;;;;;;5.38;3.58;;;10.90;99.90;;;;;;5014294;28;20134;-48
2023/10/17 13:25:43;;;;;;;4.53;2.70;;;10.90;99.90;;;;;;5013492;28;20117;-52
2023/10/17 13:28:10;;;;;;;7.25;3.50;;;10.90;99.90;;;;;;5014130;28;20168;-49
2023/10/17 13:30:36;;;;;;;3.53;3.13;;;11.00;99.90;;;;;;5014036;28;20080;-53
2023/10/17 13:33:02;;;;;;;8.07;3.17;;;11.00;99.90;;;;;;5013822;28;20037;-45
2023/10/17 13:35:28;;;;;;;5.88;2.90;;;11.10;99.90;;;;;;5013942;28;20473;-47
2023/10/17 13:37:55;;;;;;;6.53;3.10;;;11.00;99.90;;;;;;5013789;28;20022;-48
2023/10/17 13:40:23;;;;;;;7.03;2.67;;;11.10;99.90;;;;;;5013735;28;20608;-49
2023/10/17 13:42:50;;;;;;;2.78;2.53;;;11.10;99.90;;;;;;5013764;28;20037;-51
2023/10/17 13:45:17;;;;;;;6.63;2.63;;;11.10;99.90;;;;;;5014099;28;20026;-49
2023/10/17 13:47:43;;;;;;;3.97;2.13;;;11.10;99.90;;;;;;5013480;28;20060;-52
2023/10/17 13:50:15;;;;;;;2.65;2.38;;;11.20;99.90;;;;;;5013866;28;20061;-48
2023/10/17 13:52:41;;;;;;;2.78;2.20;;;11.20;99.90;;;;;;5013707;28;20113;-47
2023/10/17 13:55:14;;;;;;;10.32;2.55;;;11.30;99.90;;;;;;5013799;28;20018;-46
2023/10/17 13:57:42;;;;;;;3.10;2.25;;;11.30;99.90;;;;;;5013614;28;20069;-50
2023/10/17 14:00:21;;;;;;;4.38;2.50;;;11.30;99.90;;;;;;5012146;28;20026;-48
2023/10/17 14:02:47;;;;;;;6.15;2.13;;;11.40;99.90;;;;;;5013497;28;20022;-51
2023/10/17 14:05:13;;;;;;;5.40;2.65;;;11.30;99.90;;;;;;5013639;28;20084;-53
2023/10/17 14:07:39;;;;;;;6.03;2.03;;;11.40;99.90;;;;;;5013325;28;20022;-48
2023/10/17 14:10:09;;;;;;;6.60;2.55;;;11.40;99.90;;;;;;5013300;28;20034;-51
2023/10/17 14:12:38;;;;;;;3.47;2.72;;;11.40;99.90;;;;;;5013367;28;20022;-50
2023/10/17 14:15:06;;;;;;;6.95;2.55;;;11.40;99.90;;;;;;5013412;28;20077;-53
2023/10/17 14:17:32;;;;;;;3.78;2.15;;;11.40;99.90;;;;;;5013192;28;20022;-53
2023/10/17 14:20:05;;;;;;;8.80;2.42;;;11.40;99.90;;;;;;5013242;28;20498;-50
2023/10/17 14:22:38;;;;;;;3.83;2.30;;;11.50;99.90;;;;;;5013063;28;20052;-50
2023/10/17 14:25:06;;;;;;;3.10;2.28;;;11.50;99.90;;;;;;5013190;28;20030;-52
2023/10/17 14:27:32;;;;;;;4.55;2.22;;;11.50;99.90;;;;;;5013189;28;20603;-48
2023/10/17 14:30:05;;;;;;;7.55;2.10;;;11.60;99.90;;;;;;5012523;28;20026;-49
2023/10/17 14:32:31;;;;;;;2.90;2.13;;;11.50;99.90;;;;;;5011611;28;20080;-51
2023/10/17 14:34:57;;;;;;;2.80;1.92;;;11.60;99.90;;;;;;5012856;28;20022;-52
2023/10/17 14:37:24;;;;;;;5.93;1.95;;;11.50;99.90;;;;;;5012718;28;20029;-50
2023/10/17 14:39:52;;;;;;;2.08;1.85;;;11.60;99.90;;;;;;5011477;28;20026;-48
2023/10/17 14:42:17;;;;;;;4.05;2.50;;;11.60;99.90;;;;;;5012587;28;20014;-51
2023/10/17 14:44:46;;;;;;;5.40;2.13;;;11.60;99.90;;;;;;5012340;28;20030;-47
2023/10/17 14:47:14;;;;;;;4.03;2.38;;;11.60;99.90;;;;;;5012529;28;20022;-49
2023/10/17 14:49:42;;;;;;;4.47;2.35;;;11.60;99.90;;;;;;5012499;28;20445;-52
2023/10/17 14:52:08;;;;;;;6.63;2.45;;;11.60;99.90;;;;;;5011522;28;20029;-53
2023/10/17 14:54:34;;;;;;;2.42;2.13;;;11.70;99.90;;;;;;5012705;28;20022;-48
2023/10/17 14:57:06;;;;;;;4.75;2.83;;;11.60;99.90;;;;;;5012416;28;20497;-53
2023/10/17 14:59:34;;;;;;;6.07;2.40;;;11.60;99.90;;;;;;5012636;28;20033;-48
2023/10/17 15:02:01;;;;;;;14.57;3.47;;;11.60;99.90;;;;;;5012419;28;20406;-51
2023/10/17 15:04:26;;;;;;;8.32;2.33;;;11.60;99.90;;;;;;5012252;28;20037;-46
2023/10/17 15:06:53;;;;;;;4.03;2.17;;;11.60;99.90;;;;;;5012215;28;20029;-50
2023/10/17 15:09:21;;;;;;;2.47;2.17;;;11.60;99.90;;;;;;5011118;28;20033;-47
2023/10/17 15:11:47;;;;;;;2.63;2.10;;;11.60;99.90;;;;;;5012415;28;20029;-48
2023/10/17 15:14:13;;;;;;;3.50;2.28;;;11.60;99.90;;;;;;5012098;28;20029;-49
2023/10/17 15:16:38;;;;;;;4.50;3.20;;;11.60;99.90;;;;;;5011938;28;20045;-49
2023/10/17 15:19:04;;;;;;;3.88;2.53;;;11.70;99.90;;;;;;5010665;28;20033;-47
2023/10/17 15:21:29;;;;;;;3.85;2.22;;;11.60;99.90;;;;;;5011306;28;20058;-52
2023/10/17 15:23:55;;;;;;;3.67;2.67;;;11.60;99.90;;;;;;5011534;28;20044;-49